Time;durP1;ratioP1;P1;durP2;ratioP2;P2;SDS_P1;SDS_P2;PMS_P1;PMS_P2;Temp;Humidity;BMP_temperature;BMP_pressure;BME280_temperature;BME280_humidity;BME280_pressure;Samples;Min_cycle;Max_cycle;Signal;HPM_P1;HPM_P2
2022/11/10 00:00:11;;;;;;;;;;;10.70;99.90;;;;;;5063752;28;19984;-67
2022/11/10 00:02:38;;;;;;;;;;;10.80;99.90;;;;;;5058489;28;19921;-68
2022/11/10 00:05:05;;;;;;;;;;;10.80;99.90;;;;;;5055637;28;19928;-67
2022/11/10 00:07:31;;;;;;;;;;;10.80;99.90;;;;;;5064096;28;19956;-67
2022/11/10 00:09:58;;;;;;;;;;;10.70;99.90;;;;;;5063595;28;20254;-67
2022/11/10 00:12:25;;;;;;;;;;;10.80;99.90;;;;;;5063998;28;19945;-68
2022/11/10 00:17:37;;;;;;;;;;;10.80;99.90;;;;;;5058539;28;19960;-67
2022/11/10 00:20:04;;;;;;;;;;;10.80;99.90;;;;;;5055501;28;19987;-67
2022/11/10 00:22:31;;;;;;;;;;;10.80;99.90;;;;;;5063789;28;19951;-68
2022/11/10 00:24:58;;;;;;;;;;;10.80;99.90;;;;;;5063696;28;19963;-67
2022/11/10 00:27:24;;;;;;;;;;;10.80;99.90;;;;;;5063679;28;19948;-68
2022/11/10 00:29:52;;;;;;;;;;;10.80;99.90;;;;;;5063519;28;20178;-67
2022/11/10 00:32:19;;;;;;;;;;;10.80;99.90;;;;;;5059964;28;19952;-67
2022/11/10 00:34:46;;;;;;;;;;;10.80;99.90;;;;;;5052925;28;19921;-68
2022/11/10 00:37:13;;;;;;;;;;;10.80;99.90;;;;;;5063240;28;19980;-67
2022/11/10 00:39:39;;;;;;;;;;;10.80;99.90;;;;;;5063526;28;20140;-67
2022/11/10 00:42:06;;;;;;;;;;;10.70;99.90;;;;;;5063311;28;19952;-67
2022/11/10 00:44:33;;;;;;;;;;;10.70;99.90;;;;;;5063463;28;19921;-68
2022/11/10 00:47:01;;;;;;;;;;;10.70;99.90;;;;;;5063228;28;19958;-68
2022/11/10 00:49:27;;;;;;;;;;;10.70;99.90;;;;;;5048489;28;19985;-68
2022/11/10 00:51:54;;;;;;;;;;;10.70;99.90;;;;;;5062771;28;20007;-67
2022/11/10 00:54:21;;;;;;;;;;;10.70;99.90;;;;;;5062992;28;19979;-68
2022/11/10 00:56:47;;;;;;;;;;;10.70;99.90;;;;;;5059574;28;19957;-67
2022/11/10 00:59:14;;;;;;;;;;;10.70;99.90;;;;;;5047514;28;19964;-68
2022/11/10 01:01:41;;;;;;;;;;;10.60;99.90;;;;;;5047427;28;19953;-67
2022/11/10 01:04:09;;;;;;;;;;;10.60;99.90;;;;;;5043383;28;20028;-68
2022/11/10 01:06:35;;;;;;;;;;;10.60;99.90;;;;;;5063948;28;19991;-68
2022/11/10 01:09:02;;;;;;;;;;;10.60;99.90;;;;;;5067476;28;19963;-68
2022/11/10 01:11:29;;;;;;;;;;;10.50;99.90;;;;;;5067365;28;19964;-67
2022/11/10 01:13:56;;;;;;;;;;;10.50;99.90;;;;;;5067329;28;19956;-67
2022/11/10 01:16:23;;;;;;;;;;;10.50;99.90;;;;;;5066514;28;19992;-67
2022/11/10 01:18:50;;;;;;;;;;;10.50;99.90;;;;;;5060116;28;19955;-68
2022/11/10 01:21:18;;;;;;;;;;;10.50;99.90;;;;;;5061361;28;19980;-67
2022/11/10 01:23:45;;;;;;;;;;;10.40;99.90;;;;;;5066726;28;19989;-67
2022/11/10 01:26:12;;;;;;;;;;;10.40;99.90;;;;;;5066802;28;19951;-67
2022/11/10 01:28:38;;;;;;;;;;;10.40;99.90;;;;;;5066722;28;19988;-68
2022/11/10 01:31:06;;;;;;;;;;;10.40;99.90;;;;;;5066929;28;19999;-68
2022/11/10 01:33:33;;;;;;;;;;;10.40;99.90;;;;;;5062502;28;20174;-68
2022/11/10 01:36:00;;;;;;;;;;;10.40;99.90;;;;;;5054694;28;19921;-68
2022/11/10 01:38:29;;;;;;;;;;;10.40;99.90;;;;;;5046890;28;20256;-67
2022/11/10 01:40:56;;;;;;;;;;;10.40;99.90;;;;;;5046463;28;19944;-68
2022/11/10 01:43:23;;;;;;;;;;;10.40;99.90;;;;;;5046454;28;20036;-68
2022/11/10 01:45:51;;;;;;;;;;;10.30;99.90;;;;;;5046577;28;19929;-68
2022/11/10 01:48:18;;;;;;;;;;;10.30;99.90;;;;;;5048951;28;19924;-67
2022/11/10 01:50:46;;;;;;;;;;;10.40;99.90;;;;;;5058298;28;19984;-67
2022/11/10 01:53:16;;;;;;;;;;;10.40;99.90;;;;;;5066602;28;19988;-67
2022/11/10 01:55:44;;;;;;;;;;;10.40;99.90;;;;;;5065988;28;20000;-67
2022/11/10 01:58:12;;;;;;;;;;;10.40;99.90;;;;;;5066099;28;19935;-67
2022/11/10 02:00:39;;;;;;;;;;;10.30;99.90;;;;;;5066420;28;19952;-66
2022/11/10 02:03:09;;;;;;;;;;;10.30;99.90;;;;;;5058494;28;19948;-67
2022/11/10 02:05:36;;;;;;;;;;;10.30;99.90;;;;;;5057444;28;20018;-67
2022/11/10 02:08:03;;;;;;;;;;;10.30;99.90;;;;;;5065651;28;19984;-67
2022/11/10 02:10:30;;;;;;;;;;;10.20;99.90;;;;;;5065796;28;19984;-67
2022/11/10 02:12:58;;;;;;;;;;;10.20;99.90;;;;;;5065812;28;19984;-67
2022/11/10 02:15:25;;;;;;;;;;;10.20;99.90;;;;;;5065863;28;19952;-66
2022/11/10 02:17:51;;;;;;;;;;;10.20;99.90;;;;;;5061854;28;19925;-69
2022/11/10 02:20:19;;;;;;;;;;;10.20;99.90;;;;;;5057390;28;19987;-68
2022/11/10 02:22:47;;;;;;;;;;;10.20;99.90;;;;;;5066070;28;19929;-69
2022/11/10 02:25:15;;;;;;;;;;;10.10;99.90;;;;;;5065651;28;20183;-66
2022/11/10 02:27:42;;;;;;;;;;;10.10;99.90;;;;;;5065642;28;19959;-67
2022/11/10 02:30:09;;;;;;;;;;;10.10;99.90;;;;;;5065723;28;20008;-67
2022/11/10 02:32:36;;;;;;;;;;;10.10;99.90;;;;;;5060887;28;20229;-69
2022/11/10 02:35:02;;;;;;;;;;;10.10;99.90;;;;;;5056926;28;20224;-67
2022/11/10 02:37:29;;;;;;;;;;;10.10;99.90;;;;;;5065747;28;19959;-67
2022/11/10 02:39:57;;;;;;;;;;;10.10;99.90;;;;;;5065611;28;19988;-68
2022/11/10 02:42:24;;;;;;;;;;;10.00;99.90;;;;;;5065523;28;19956;-68
2022/11/10 02:44:51;;;;;;;;;;;10.00;99.90;;;;;;5065366;28;19972;-67
2022/11/10 02:47:17;;;;;;;;;;;10.00;99.90;;;;;;5063517;28;19992;-67
2022/11/10 02:49:44;;;;;;;;;;;10.00;99.90;;;;;;5055153;28;19953;-68
2022/11/10 02:52:11;;;;;;;;;;;10.00;99.90;;;;;;5065405;28;19920;-67
2022/11/10 02:54:38;;;;;;;;;;;9.90;99.90;;;;;;5065121;28;20140;-67
2022/11/10 02:57:06;;;;;;;;;;;9.90;99.90;;;;;;5065315;28;19984;-68
2022/11/10 02:59:32;;;;;;;;;;;9.80;99.90;;;;;;5064781;28;20177;-68
2022/11/10 03:01:59;;;;;;;;;;;9.70;99.90;;;;;;5064876;28;20255;-67
2022/11/10 03:04:25;;;;;;;;;;;9.70;99.90;;;;;;5079370;23;19999;-68
2022/11/10 03:06:52;;;;;;;;;;;9.60;99.90;;;;;;5072821;28;19991;-68
2022/11/10 03:09:19;;;;;;;;;;;9.60;99.90;;;;;;5064835;28;19948;-68
2022/11/10 03:11:45;;;;;;;;;;;9.50;99.90;;;;;;5064729;28;19991;-68
2022/11/10 03:14:13;;;;;;;;;;;9.40;99.90;;;;;;5064389;28;19987;-68
2022/11/10 03:16:40;;;;;;;;;;;9.40;99.90;;;;;;5064441;28;19984;-69
2022/11/10 03:19:06;;;;;;;;;;;9.20;99.90;;;;;;5074280;28;19921;-70
2022/11/10 03:21:33;;;;;;;;;;;9.20;99.90;;;;;;5080926;28;19984;-68
2022/11/10 03:24:00;;;;;;;;;;;9.10;99.90;;;;;;5084265;28;20278;-68
2022/11/10 03:26:26;;;;;;;;;;;9.00;99.90;;;;;;5074646;28;20044;-69
2022/11/10 03:28:53;;;;;;;;;;;9.00;99.90;;;;;;5064386;28;20160;-68
2022/11/10 03:31:21;;;;;;;;;;;9.10;99.90;;;;;;5064234;28;19999;-69
2022/11/10 03:33:47;;;;;;;;;;;9.00;99.90;;;;;;5075611;28;19983;-69
2022/11/10 03:36:14;;;;;;;;;;;9.00;99.90;;;;;;5064032;28;19988;-69
2022/11/10 03:38:41;;;;;;;;;;;9.00;99.90;;;;;;5064096;28;20306;-68
2022/11/10 03:41:07;;;;;;;;;;;9.00;99.90;;;;;;5064380;28;19993;-69
2022/11/10 03:43:36;;;;;;;;;;;9.00;99.90;;;;;;5063525;28;19987;-69
2022/11/10 03:46:03;;;;;;;;;;;9.00;99.90;;;;;;5063966;28;19928;-68
2022/11/10 03:48:30;;;;;;;;;;;9.00;99.90;;;;;;5074886;28;20160;-68
2022/11/10 03:50:57;;;;;;;;;;;9.00;99.90;;;;;;5075382;28;19992;-68
2022/11/10 03:53:24;;;;;;;;;;;9.00;99.90;;;;;;5083233;28;19995;-68
2022/11/10 03:55:50;;;;;;;;;;;9.00;99.90;;;;;;5083854;28;19962;-70
2022/11/10 03:58:17;;;;;;;;;;;9.00;99.90;;;;;;5083956;28;19920;-69
2022/11/10 04:00:44;;;;;;;;;;;9.00;99.90;;;;;;5083646;28;20263;-68
2022/11/10 04:03:10;;;;;;;;;;;9.00;99.90;;;;;;5082844;28;19988;-68
2022/11/10 04:11:07;;;;;;;;;;;8.90;99.90;;;;;;5083686;28;19923;-68
2022/11/10 04:16:17;;;;;;;;;;;8.80;99.90;;;;;;5083501;28;20151;-68
2022/11/10 04:18:44;;;;;;;;;;;8.80;99.90;;;;;;5081581;28;19984;-68
2022/11/10 04:21:12;;;;;;;;;;;8.80;99.90;;;;;;5076957;28;19979;-68
2022/11/10 04:23:38;;;;;;;;;;;8.70;99.90;;;;;;5083695;28;20275;-69
2022/11/10 04:28:51;;;;;;;;;;;8.70;99.90;;;;;;5083503;28;19931;-67
2022/11/10 04:31:18;;;;;;;;;;;8.60;99.90;;;;;;5083161;28;19991;-68
2022/11/10 04:33:45;;;;;;;;;;;8.60;99.90;;;;;;5081092;28;19983;-68
2022/11/10 04:36:14;;;;;;;;;;;8.60;99.90;;;;;;5076655;28;19924;-68
2022/11/10 04:38:41;;;;;;;;;;;8.60;99.90;;;;;;5083531;28;19955;-69
2022/11/10 04:41:08;;;;;;;;;;;8.60;99.90;;;;;;5083446;28;19987;-68
2022/11/10 04:43:35;;;;;;;;;;;8.60;99.90;;;;;;5083449;28;19992;-68
2022/11/10 04:46:02;;;;;;;;;;;8.60;99.90;;;;;;5082806;28;19991;-68
2022/11/10 04:48:29;;;;;;;;;;;8.50;99.90;;;;;;5082696;28;19928;-68
2022/11/10 04:50:56;;;;;;;;;;;8.50;99.90;;;;;;5074875;28;19921;-68
2022/11/10 04:53:24;;;;;;;;;;;8.50;99.90;;;;;;5082922;28;19967;-68
2022/11/10 04:55:51;;;;;;;;;;;8.40;99.90;;;;;;5083106;28;19962;-68
2022/11/10 04:58:17;;;;;;;;;;;8.40;99.90;;;;;;5082987;28;20263;-68
2022/11/10 05:00:44;;;;;;;;;;;8.30;99.90;;;;;;5078007;28;19993;-68
2022/11/10 05:03:11;;;;;;;;;;;8.30;99.90;;;;;;5065976;28;19952;-68
2022/11/10 05:05:38;;;;;;;;;;;8.20;99.90;;;;;;5070288;28;19983;-68
2022/11/10 05:08:05;;;;;;;;;;;8.20;99.90;;;;;;5063106;28;19921;-68
2022/11/10 05:10:33;;;;;;;;;;;8.20;99.90;;;;;;5063194;28;19921;-68
2022/11/10 05:12:59;;;;;;;;;;;8.20;99.90;;;;;;5062652;28;19999;-69
2022/11/10 05:15:26;;;;;;;;;;;8.30;99.90;;;;;;5062747;28;19955;-68
2022/11/10 05:17:53;;;;;;;;;;;8.20;99.90;;;;;;5066158;28;19959;-68
2022/11/10 05:20:21;;;;;;;;;;;8.20;99.90;;;;;;5071140;28;20164;-68
2022/11/10 05:23:36;;;;;;;;;;;8.20;99.90;;;;;;5063047;28;20177;-68
2022/11/10 05:25:37;;;;;;;;;;;8.10;99.90;;;;;;5062226;28;19920;-68
2022/11/10 05:28:04;;;;;;;;;;;8.10;99.90;;;;;;5063003;28;20001;-67
2022/11/10 05:30:31;;;;;;;;;;;8.00;99.90;;;;;;5063025;28;19921;-68
2022/11/10 05:32:57;;;;;;;;;;;8.00;99.90;;;;;;5059207;28;20159;-68
2022/11/10 05:35:24;;;;;;;;;;;7.90;99.90;;;;;;5070357;28;19988;-68
2022/11/10 05:37:51;;;;;;;;;;;7.90;99.90;;;;;;5061569;28;19952;-70
2022/11/10 05:40:18;;;;;;;;;;;7.90;99.90;;;;;;5062585;28;20227;-69
2022/11/10 05:42:46;;;;;;;;;;;7.90;99.90;;;;;;5063704;28;19985;-69
2022/11/10 05:45:13;;;;;;;;;;;7.90;99.90;;;;;;5066218;28;19987;-69
2022/11/10 05:47:40;;;;;;;;;;;7.90;99.90;;;;;;5066950;28;19943;-69
2022/11/10 05:50:07;;;;;;;;;;;7.80;99.90;;;;;;5077001;28;19991;-69
2022/11/10 05:52:35;;;;;;;;;;;7.80;99.90;;;;;;5086016;28;20226;-69
2022/11/10 05:55:01;;;;;;;;;;;7.90;99.90;;;;;;5086067;28;19947;-69
2022/11/10 05:57:28;;;;;;;;;;;7.90;99.90;;;;;;5086018;28;19956;-69
2022/11/10 05:59:56;;;;;;;;;;;8.00;99.90;;;;;;5086312;28;20075;-69
2022/11/10 06:02:22;;;;;;;;;;;8.00;99.90;;;;;;5086225;28;19979;-68
2022/11/10 06:04:49;;;;;;;;;;;8.00;99.90;;;;;;5074917;28;20279;-68
2022/11/10 06:07:16;;;;;;;;;;;8.00;99.90;;;;;;5065719;28;19984;-69
2022/11/10 06:09:42;;;;;;;;;;;8.00;99.90;;;;;;5065165;28;19984;-69
2022/11/10 06:12:09;;;;;;;;;;;8.00;99.90;;;;;;5065930;28;19984;-69
2022/11/10 06:14:35;;;;;;;;;;;8.00;99.90;;;;;;5065576;28;19988;-69
2022/11/10 06:17:03;;;;;;;;;;;8.10;99.90;;;;;;5065706;28;19920;-69
2022/11/10 06:19:30;;;;;;;;;;;8.10;99.90;;;;;;5065356;28;19921;-69
2022/11/10 06:21:57;;;;;;;;;;;8.10;99.90;;;;;;5082685;28;19956;-67
2022/11/10 06:24:23;;;;;;;;;;;8.10;99.90;;;;;;5051003;28;19984;-68
2022/11/10 06:26:50;;;;;;;;;;;8.10;99.90;;;;;;5055943;28;19927;-68
2022/11/10 06:29:16;;;;;;;;;;;8.10;99.90;;;;;;5065264;28;19989;-69
2022/11/10 06:31:43;;;;;;;;;;;8.10;99.90;;;;;;5065800;28;19956;-68
2022/11/10 06:34:11;;;;;;;;;;;8.10;99.90;;;;;;5072850;28;19983;-69
2022/11/10 06:36:39;;;;;;;;;;;8.10;99.90;;;;;;5082326;28;19980;-70
2022/11/10 06:39:06;;;;;;;;;;;8.20;99.90;;;;;;5085532;28;19983;-69
2022/11/10 06:41:33;;;;;;;;;;;8.20;99.90;;;;;;5085689;28;19984;-70
2022/11/10 06:44:00;;;;;;;;;;;8.20;99.90;;;;;;5084609;28;19921;-68
2022/11/10 06:46:26;;;;;;;;;;;8.20;99.90;;;;;;5084835;28;19920;-68
2022/11/10 06:48:53;;;;;;;;;;;8.20;99.90;;;;;;5076832;28;19921;-68
2022/11/10 06:51:21;;;;;;;;;;;8.10;99.90;;;;;;5070366;28;19959;-68
2022/11/10 06:53:47;;;;;;;;;;;8.10;99.90;;;;;;5064607;28;19971;-67
2022/11/10 06:56:14;;;;;;;;;;;8.10;99.90;;;;;;5064825;28;19983;-68
2022/11/10 06:58:41;;;;;;;;;;;8.00;99.90;;;;;;5065025;28;20019;-67
2022/11/10 07:01:07;;;;;;;;;;;8.10;99.90;;;;;;5064798;28;20259;-68
2022/11/10 07:03:35;;;;;;;;;;;8.10;99.90;;;;;;5076220;28;19976;-68
2022/11/10 07:06:01;;;;;;;;;;;8.10;99.90;;;;;;5076435;28;19921;-68
2022/11/10 07:08:29;;;;;;;;;;;8.20;99.90;;;;;;5084820;28;19956;-69
2022/11/10 07:10:56;;;;;;;;;;;8.20;99.90;;;;;;5084643;28;19988;-68
2022/11/10 07:13:23;;;;;;;;;;;8.20;99.90;;;;;;5084833;28;19983;-72
2022/11/10 07:15:50;;;;;;;;;;;8.30;99.90;;;;;;5084549;28;19988;-68
2022/11/10 07:18:17;;;;;;;;;;;8.30;99.90;;;;;;5083956;28;19920;-68
2022/11/10 07:20:44;;;;;;;;;;;8.40;99.90;;;;;;5076155;28;20259;-68
2022/11/10 07:23:11;;;;;;;;;;;8.50;99.90;;;;;;5084633;28;19927;-68
2022/11/10 07:25:39;;;;;;;;;;;8.50;99.90;;;;;;5084413;28;19987;-68
2022/11/10 07:28:07;;;;;;;;;;;8.60;99.90;;;;;;5083385;28;19920;-68
2022/11/10 07:30:34;;;;;;;;;;;8.60;99.90;;;;;;5084506;28;19988;-68
2022/11/10 07:33:01;;;;;;;;;;;8.60;99.90;;;;;;5083590;28;19983;-68
2022/11/10 07:35:28;;;;;;;;;;;8.70;99.90;;;;;;5075727;28;19983;-68
2022/11/10 07:37:55;;;;;;;;;;;8.70;99.90;;;;;;5084107;28;20182;-68
2022/11/10 07:40:21;;;;;;;;;;;8.70;99.90;;;;;;5084316;28;20051;-68
2022/11/10 07:42:50;;;;;;;;;;;8.80;99.90;;;;;;5084277;28;19988;-68
2022/11/10 07:45:16;;;;;;;;;;;8.80;99.90;;;;;;5083983;28;19988;-68
2022/11/10 07:47:43;;;;;;;;;;;8.90;99.90;;;;;;5083532;28;19999;-68
2022/11/10 07:50:10;;;;;;;;;;;8.90;99.90;;;;;;5075734;28;19988;-68
2022/11/10 07:52:36;;;;;;;;;;;9.00;99.90;;;;;;5083974;28;20087;-68
2022/11/10 07:55:03;;;;;;;;;;;9.00;99.90;;;;;;5083714;28;19959;-68
2022/11/10 07:57:30;;;;;;;;;;;9.00;99.90;;;;;;5083804;28;20259;-68
2022/11/10 07:59:58;;;;;;;;;;;9.10;99.90;;;;;;5083969;28;20052;-68
2022/11/10 08:02:25;;;;;;;;;;;9.10;99.90;;;;;;5083288;28;20150;-68
2022/11/10 08:04:51;;;;;;;;;;;9.10;99.90;;;;;;5074620;28;19928;-67
2022/11/10 08:07:18;;;;;;;;;;;9.10;99.90;;;;;;5083535;28;19958;-68
2022/11/10 08:09:45;;;;;;;;;;;9.10;99.90;;;;;;5083892;28;19987;-68
2022/11/10 08:12:11;;;;;;;;;;;9.20;99.90;;;;;;5083832;28;19959;-68
2022/11/10 08:14:38;;;;;;;;;;;9.20;99.90;;;;;;5083145;28;20148;-68
2022/11/10 08:17:06;;;;;;;;;;;9.20;99.90;;;;;;5083782;28;20116;-68
2022/11/10 08:19:32;;;;;;;;;;;9.30;99.90;;;;;;5071534;28;19987;-68
2022/11/10 08:21:59;;;;;;;;;;;9.40;99.90;;;;;;5083535;28;19983;-69
2022/11/10 08:24:26;;;;;;;;;;;9.40;99.90;;;;;;5083469;28;19979;-68
2022/11/10 08:26:52;;;;;;;;;;;9.40;99.90;;;;;;5083298;28;19983;-68
2022/11/10 08:29:19;;;;;;;;;;;9.40;99.90;;;;;;5082719;28;19956;-68
2022/11/10 08:31:46;;;;;;;;;;;9.40;99.90;;;;;;5083659;28;19956;-68
2022/11/10 08:34:14;;;;;;;;;;;9.40;99.90;;;;;;5077805;28;19975;-67
2022/11/10 08:36:40;;;;;;;;;;;9.40;99.90;;;;;;5080779;28;19920;-68
2022/11/10 08:39:07;;;;;;;;;;;9.40;99.90;;;;;;5083538;28;19984;-68
2022/11/10 08:41:34;;;;;;;;;;;9.40;99.90;;;;;;5083465;28;20152;-68
2022/11/10 08:44:00;;;;;;;;;;;9.40;99.90;;;;;;5083402;28;19988;-67
2022/11/10 08:46:27;;;;;;;;;;;9.40;99.90;;;;;;5083129;28;19984;-68
2022/11/10 08:48:53;;;;;;;;;;;9.40;99.90;;;;;;5079840;28;19991;-68
2022/11/10 08:51:21;;;;;;;;;;;9.40;99.90;;;;;;5077779;28;19985;-68
2022/11/10 08:53:48;;;;;;;;;;;9.40;99.90;;;;;;5083144;28;20150;-68
2022/11/10 08:56:15;;;;;;;;;;;9.50;99.90;;;;;;5082993;28;19992;-68
2022/11/10 08:58:41;;;;;;;;;;;9.60;99.90;;;;;;5083354;28;20160;-68
2022/11/10 09:01:08;;;;;;;;;;;9.60;99.90;;;;;;5083365;28;19958;-68
2022/11/10 09:03:35;;;;;;;;;;;9.60;99.90;;;;;;5082190;28;19962;-68
2022/11/10 09:06:01;;;;;;;;;;;9.70;99.90;;;;;;5075009;28;19977;-68
2022/11/10 09:08:32;;;;;;;;;;;9.70;99.90;;;;;;5082950;28;19987;-68
2022/11/10 09:11:01;;;;;;;;;;;9.70;99.90;;;;;;5083186;28;19920;-67
2022/11/10 09:13:28;;;;;;;;;;;9.70;99.90;;;;;;5083041;28;19951;-68
2022/11/10 09:15:54;;;;;;;;;;;9.70;99.90;;;;;;5082971;28;20000;-68
2022/11/10 09:18:21;;;;;;;;;;;9.80;99.90;;;;;;5100039;22;19993;-91
2022/11/10 09:20:48;;;;;;;;;;;9.80;99.90;;;;;;5046945;28;19909;-91
2022/11/10 09:23:15;;;;;;;;;;;9.90;99.90;;;;;;5049849;28;19984;-92
2022/11/10 09:25:48;;;;;;;;;;;9.90;99.90;;;;;;5061066;28;19925;-91
2022/11/10 09:28:15;;;;;;;;;;;10.00;99.90;;;;;;5046617;28;19933;-92
2022/11/10 09:30:42;;;;;;;;;;;10.00;99.90;;;;;;5041519;28;19921;-91
2022/11/10 09:33:09;;;;;;;;;;;10.10;99.90;;;;;;5053359;28;19936;-92
2022/11/10 09:35:36;;;;;;;;;;;10.20;99.90;;;;;;5072390;28;19943;-92
2022/11/10 09:38:03;;;;;;;;;;;10.30;99.90;;;;;;5081143;28;19932;-92
2022/11/10 09:40:33;;;;;;;;;;;10.30;99.90;;;;;;5081089;28;19924;-92
2022/11/10 09:43:02;;;;;;;;;;;10.30;99.90;;;;;;5081042;28;19929;-92
2022/11/10 09:45:30;;;;;;;;;;;10.30;99.90;;;;;;5080711;28;19916;-92
2022/11/10 09:48:00;;;;;;;;;;;10.20;99.90;;;;;;5080410;28;20482;-92
2022/11/10 09:50:31;;;;;;;;;;;10.20;99.90;;;;;;5065266;28;19962;-91
2022/11/10 09:52:58;;;;;;;;;;;10.30;99.90;;;;;;5060815;28;19909;-92
2022/11/10 09:55:30;;;;;;;;;;;10.20;99.90;;;;;;5060460;28;19913;-92
2022/11/10 09:57:58;;;;;;;;;;;10.20;99.90;;;;;;5060903;28;19920;-91
2022/11/10 10:00:28;;;;;;;;;;;10.10;99.90;;;;;;5060778;28;19916;-92
2022/11/10 10:02:58;;;;;;;;;;;10.10;99.90;;;;;;5065614;28;19931;-91
2022/11/10 10:05:35;;;;;;;;;;;10.20;99.90;;;;;;5071854;28;19943;-92
2022/11/10 10:08:03;;;;;;;;;;;10.20;99.90;;;;;;5080707;28;19921;-90
2022/11/10 10:10:33;;;;;;;;;;;10.20;99.90;;;;;;5080529;28;19967;-91
2022/11/10 10:13:08;;;;;;;;;;;10.30;99.90;;;;;;5080475;28;19929;-92
2022/11/10 10:15:41;;;;;;;;;;;10.50;99.90;;;;;;5080066;28;19976;-91
2022/11/10 10:18:13;;;;;;;;;;;10.70;99.90;;;;;;5079453;28;19909;-91
2022/11/10 10:20:46;;;;;;;;;;;10.80;99.90;;;;;;5071967;28;19913;-92
2022/11/10 10:23:16;;;;;;;;;;;10.90;99.90;;;;;;5080380;28;19952;-93
2022/11/10 10:25:44;;;;;;;;;;;11.00;99.90;;;;;;5080003;28;19943;-93
2022/11/10 10:28:14;;;;;;;;;;;11.00;99.90;;;;;;5078854;28;19944;-92
2022/11/10 10:30:42;;;;;;;;;;;11.10;99.90;;;;;;5080264;28;19909;-93
2022/11/10 10:33:13;;;;;;;;;;;11.10;99.90;;;;;;5079521;28;19937;-93
2022/11/10 10:35:40;;;;;;;;;;;11.20;99.90;;;;;;5070802;28;19925;-93
2022/11/10 10:38:11;;;;;;;;;;;11.10;99.90;;;;;;5059912;28;19909;-92
2022/11/10 10:40:37;;;;;;;;;;;11.20;99.90;;;;;;5060042;28;19940;-91
2022/11/10 10:43:04;;;;;;;;;;;11.10;99.90;;;;;;5059997;28;19913;-91
2022/11/10 10:45:31;;;;;;;;;;;11.20;99.90;;;;;;5059641;28;19910;-91
2022/11/10 10:48:00;;;;;;;;;;;11.40;99.90;;;;;;5065343;28;19944;-92
2022/11/10 10:50:29;;;;;;;;;;;11.50;99.90;;;;;;5071407;28;19931;-93
2022/11/10 10:53:13;;;;;;;;;;;11.80;99.90;;;;;;5079740;28;19912;-92
2022/11/10 10:55:44;;;;;;;;;;;12.10;99.90;;;;;;5079389;28;19923;-93
2022/11/10 10:58:18;;;;;;;;;;;12.30;99.90;;;;;;5079711;28;19909;-92
2022/11/10 11:00:46;;;;;;;;;;;12.50;99.90;;;;;;5079812;28;19936;-91
2022/11/10 11:03:19;;;;;;;;;;;12.60;99.90;;;;;;5076296;28;19952;-93
2022/11/10 11:05:59;;;;;;;;;;;12.60;99.90;;;;;;5070906;28;19988;-93
2022/11/10 11:08:26;;;;;;;;;;;12.80;99.90;;;;;;5079615;28;19916;-90
2022/11/10 11:10:53;;;;;;;;;;;12.90;99.90;;;;;;5079436;28;19924;-91
2022/11/10 11:13:21;;;;;;;;;;;13.10;99.90;;;;;;5079358;28;19912;-92
2022/11/10 11:15:56;;;;;;;;;;;13.40;99.90;;;;;;5078912;28;19936;-91
2022/11/10 11:18:26;;;;;;;;;;;13.40;99.90;;;;;;5078542;28;19921;-92
2022/11/10 11:20:57;;;;;;;;;;;13.50;99.90;;;;;;5070819;28;20017;-92
2022/11/10 11:23:31;;;;;;;;;;;13.50;99.90;;;;;;5079101;28;19936;-92
2022/11/10 11:26:01;;;;;;;;;;;13.30;99.90;;;;;;5078693;28;19908;-92
2022/11/10 11:28:33;;;;;;;;;;;13.50;99.90;;;;;;5078122;28;19924;-92
2022/11/10 11:31:04;;;;;;;;;;;13.50;99.90;;;;;;5079057;28;19940;-92
2022/11/10 11:33:37;;;;;;;;;;;13.50;99.90;;;;;;5075841;28;19913;-93
2022/11/10 11:36:10;;;;;;;;;;;13.50;99.90;;;;;;5066335;28;19916;-91
2022/11/10 11:38:44;;;;;;;;;;;13.70;99.90;;;;;;5058063;28;22524;-92
2022/11/10 11:41:15;;;;;;;;;;;13.90;99.90;;;;;;5057953;28;19936;-93
2022/11/10 11:43:59;;;;;;;;;;;14.10;99.90;;;;;;5058731;28;19940;-93
2022/11/10 11:46:30;;;;;;;;;;;14.30;99.90;;;;;;5058513;28;19933;-93
2022/11/10 11:49:09;;;;;;;;;;;14.60;99.90;;;;;;5069030;28;19924;-92
2022/11/10 11:51:38;;;;;;;;;;;14.70;99.90;;;;;;5075154;28;19917;-91
2022/11/10 11:54:21;;;;;;;;;;;14.90;99.90;;;;;;5078461;28;20082;-91
2022/11/10 11:56:49;;;;;;;;;;;15.10;99.90;;;;;;5078326;28;19912;-92
2022/11/10 11:59:28;;;;;;;;;;;15.20;99.90;;;;;;5078487;28;19936;-91
2022/11/10 12:02:01;;;;;;;;;;;15.20;99.90;;;;;;5078538;28;19909;-92
2022/11/10 12:04:42;;;;;;;;;;;15.30;99.90;;;;;;5077719;28;19913;-92
2022/11/10 12:07:13;;;;;;;;;;;15.40;99.90;;;;;;5078309;28;19920;-91
2022/11/10 12:09:44;;;;;;;;;;;15.40;99.90;;;;;;5078372;28;19913;-92
2022/11/10 12:12:29;;;;;;;;;;;15.20;99.90;;;;;;5078486;28;19913;-91
2022/11/10 12:15:00;;;;;;;;;;;14.90;99.90;;;;;;5078198;28;19919;-92
2022/11/10 12:17:31;;;;;;;;;;;14.90;99.90;;;;;;5076223;28;19913;-93
2022/11/10 12:20:03;;;;;;;;;;;14.90;99.90;;;;;;5069522;28;19933;-93
2022/11/10 12:22:36;;;;;;;;;;;14.90;99.90;;;;;;5078077;28;19920;-92
2022/11/10 12:25:13;;;;;;;;;;;15.00;99.90;;;;;;5077907;28;19912;-91
2022/11/10 12:27:44;;;;;;;;;;;15.10;99.90;;;;;;5077267;28;19909;-92
2022/11/10 12:30:12;;;;;;;;;;;15.30;99.90;;;;;;5078025;28;19963;-92
2022/11/10 12:32:41;;;;;;;;;;;15.60;99.90;;;;;;5077379;28;19912;-94
2022/11/10 12:35:14;;;;;;;;;;;15.80;99.90;;;;;;5064422;28;19936;-94
2022/11/10 12:37:43;;;;;;;;;;;16.00;99.90;;;;;;5057967;28;19913;-95
2022/11/10 12:40:14;;;;;;;;;;;15.90;99.90;;;;;;5058077;28;19932;-92
2022/11/10 12:42:42;;;;;;;;;;;15.80;99.90;;;;;;5058467;28;19909;-94
2022/11/10 12:45:17;;;;;;;;;;;15.40;99.90;;;;;;5057992;28;19909;-93
2022/11/10 12:47:45;;;;;;;;;;;15.20;99.90;;;;;;5134499;22;19923;-71
2022/11/10 12:50:25;;;;;;;;;;;15.10;99.90;;;;;;5074823;28;19920;-71
2022/11/10 12:52:53;;;;;;;;;;;15.20;99.90;;;;;;5086365;28;20162;-70
2022/11/10 12:55:20;;;;;;;;;;;15.20;99.90;;;;;;5087136;28;19999;-71
2022/11/10 12:57:48;;;;;;;;;;;15.30;99.90;;;;;;5087417;28;19952;-70
2022/11/10 13:00:26;;;;;;;;;;;15.30;99.90;;;;;;5087481;28;19920;-70
2022/11/10 13:02:54;;;;;;;;;;;15.10;99.90;;;;;;5097263;22;20204;-70
2022/11/10 13:05:32;;;;;;;;;;;14.90;99.90;;;;;;5058730;28;19921;-69
2022/11/10 13:08:20;;;;;;;;;;;14.60;99.90;;;;;;5067039;28;19952;-69
2022/11/10 13:10:50;;;;;;;;;;;14.30;99.90;;;;;;5062139;28;19924;-68
2022/11/10 13:13:17;;;;;;;;;;;14.20;99.90;;;;;;5067227;28;19921;-69
2022/11/10 13:15:48;;;;;;;;;;;14.20;99.90;;;;;;5066493;28;20284;-70
2022/11/10 13:18:22;;;;;;;;;;;14.20;99.90;;;;;;5064767;28;19963;-69
2022/11/10 13:20:51;;;;;;;;;;;14.30;99.90;;;;;;5056768;28;19984;-69
2022/11/10 13:23:21;;;;;;;;;;;14.40;99.90;;;;;;5042215;28;19967;-70
2022/11/10 13:25:52;;;;;;;;;;;14.40;99.90;;;;;;5046688;28;19985;-70
2022/11/10 13:28:33;;;;;;;;;;;14.50;99.90;;;;;;5046933;28;19921;-69
2022/11/10 13:31:00;;;;;;;;;;;14.50;99.90;;;;;;5046310;28;19980;-70
2022/11/10 13:33:33;;;;;;;;;;;14.80;99.90;;;;;;5055135;28;19987;-69
2022/11/10 13:36:01;;;;;;;;;;;14.70;99.90;;;;;;5058020;28;19983;-69
2022/11/10 13:38:37;;;;;;;;;;;14.50;99.90;;;;;;5065513;28;20000;-69
2022/11/10 13:41:28;;;;;;;;;;;14.30;99.90;;;;;;5039913;28;19964;-69
2022/11/10 13:43:55;;;;;;;;;;;14.00;99.90;;;;;;5021000;28;19953;-69
2022/11/10 13:46:33;;;;;;;;;;;13.90;99.90;;;;;;5026499;28;19984;-69
2022/11/10 13:49:14;;;;;;;;;;;13.70;99.90;;;;;;5049574;28;20000;-70
2022/11/10 13:51:44;;;;;;;;;;;13.50;99.90;;;;;;5063807;28;19960;-69
2022/11/10 13:54:19;;;;;;;;;;;13.40;99.90;;;;;;5066521;28;19971;-69
2022/11/10 13:56:59;;;;;;;;;;;13.40;99.90;;;;;;5064108;28;19984;-69
2022/11/10 13:59:28;;;;;;;;;;;13.40;99.90;;;;;;5046147;28;20268;-70
2022/11/10 14:02:09;;;;;;;;;;;13.50;99.90;;;;;;5046309;28;20010;-69
2022/11/10 14:04:38;;;;;;;;;;;13.50;99.90;;;;;;5053980;28;19984;-69
2022/11/10 14:07:12;;;;;;;;;;;13.60;99.90;;;;;;5066305;28;19920;-70
2022/11/10 14:09:40;;;;;;;;;;;13.70;99.90;;;;;;5066147;28;19981;-69
2022/11/10 14:12:15;;;;;;;;;;;13.80;99.90;;;;;;5066151;28;20165;-69
2022/11/10 14:14:47;;;;;;;;;;;13.90;99.90;;;;;;5065959;28;19989;-69
2022/11/10 14:17:15;;;;;;;;;;;14.00;99.90;;;;;;5066092;28;19984;-70
2022/11/10 14:19:43;;;;;;;;;;;14.10;99.90;;;;;;5056867;28;19921;-69
2022/11/10 14:22:18;;;;;;;;;;;14.20;99.90;;;;;;5065926;28;19956;-68
2022/11/10 14:24:53;;;;;;;;;;;14.30;99.90;;;;;;5045680;28;19929;-69
2022/11/10 14:27:22;;;;;;;;;;;14.40;99.90;;;;;;5045805;28;19997;-70
2022/11/10 14:29:48;;;;;;;;;;;14.50;99.90;;;;;;5045196;28;19952;-69
2022/11/10 14:32:19;;;;;;;;;;;14.50;99.90;;;;;;5044436;28;19984;-69
2022/11/10 14:34:47;;;;;;;;;;;14.50;99.90;;;;;;5053750;28;19985;-69
2022/11/10 14:37:19;;;;;;;;;;;14.50;99.90;;;;;;5065599;28;19956;-70
2022/11/10 14:39:48;;;;;;;;;;;14.40;99.90;;;;;;5064312;28;19983;-69
2022/11/10 14:42:19;;;;;;;;;;;14.40;99.90;;;;;;5065666;28;20011;-69
2022/11/10 14:44:46;;;;;;;;;;;14.40;99.90;;;;;;5065379;28;19921;-69